createdAt,value
2019-02-16T00:00:43.301Z,8.03
2019-02-16T00:03:12.582Z,7.87
2019-02-16T00:05:41.828Z,7.37
2019-02-16T00:08:12.574Z,7.67
2019-02-16T00:10:41.893Z,7.73
2019-02-16T00:13:11.176Z,7.17
2019-02-16T00:15:40.435Z,8.00
2019-02-16T00:18:09.686Z,6.30
2019-02-16T00:20:38.950Z,7.10
2019-02-16T00:23:08.208Z,5.93
2019-02-16T00:25:37.476Z,6.70
2019-02-16T00:28:06.745Z,5.50
2019-02-16T00:30:36.056Z,6.03
2019-02-16T00:33:06.380Z,5.90
2019-02-16T00:35:35.672Z,5.27
2019-02-16T00:38:04.950Z,5.30
2019-02-16T00:40:34.234Z,5.70
2019-02-16T00:43:03.486Z,4.77
2019-02-16T00:45:32.756Z,5.97
2019-02-16T00:48:02.020Z,6.03
2019-02-16T00:50:31.301Z,5.60
2019-02-16T00:53:00.547Z,5.73
2019-02-16T00:55:29.842Z,6.40
2019-02-16T00:57:59.120Z,6.23
2019-02-16T01:00:28.386Z,6.30
2019-02-16T01:02:57.660Z,6.80
2019-02-16T01:05:26.936Z,7.50
2019-02-16T01:07:56.273Z,6.77
2019-02-16T01:10:25.584Z,6.20
2019-02-16T01:12:54.864Z,6.50
2019-02-16T01:15:24.132Z,6.73
2019-02-16T01:17:53.378Z,7.63
2019-02-16T01:20:22.627Z,7.43
2019-02-16T01:22:51.927Z,8.07
2019-02-16T01:25:21.178Z,7.23
2019-02-16T01:27:50.447Z,8.00
2019-02-16T01:30:19.728Z,7.03
2019-02-16T01:32:48.991Z,7.73
2019-02-16T01:35:18.295Z,7.33
2019-02-16T01:37:47.546Z,7.23
2019-02-16T01:40:16.907Z,7.70
2019-02-16T01:42:46.159Z,7.93
2019-02-16T01:45:15.422Z,6.53
2019-02-16T01:47:44.688Z,7.20
2019-02-16T01:50:13.929Z,7.00
2019-02-16T01:52:43.185Z,7.00
2019-02-16T01:55:12.452Z,7.13
2019-02-16T01:57:41.703Z,7.10
2019-02-16T02:00:11.506Z,7.10
2019-02-16T02:02:40.786Z,7.47
2019-02-16T02:05:10.583Z,7.03
2019-02-16T02:07:39.908Z,6.97
2019-02-16T02:10:10.052Z,7.57
2019-02-16T02:12:39.639Z,7.23
2019-02-16T02:15:09.731Z,7.10
2019-02-16T02:17:39.014Z,7.37
2019-02-16T02:20:08.895Z,6.77
2019-02-16T02:22:38.247Z,7.43
2019-02-16T02:25:09.793Z,6.17
2019-02-16T02:27:39.039Z,7.03
2019-02-16T02:30:09.561Z,7.87
2019-02-16T02:32:38.831Z,8.10
2019-02-16T02:35:08.313Z,6.83
2019-02-16T02:37:37.623Z,7.13
2019-02-16T02:40:07.112Z,7.13
2019-02-16T02:42:36.378Z,7.93
2019-02-16T02:45:07.039Z,8.07
2019-02-16T02:47:36.284Z,7.93
2019-02-16T02:50:05.891Z,7.60
2019-02-16T02:52:35.146Z,7.97
2019-02-16T02:55:04.859Z,8.23
2019-02-16T02:57:34.134Z,8.47
2019-02-16T03:00:04.873Z,7.97
2019-02-16T03:02:34.155Z,8.17
2019-02-16T03:05:03.419Z,8.03
2019-02-16T03:07:32.662Z,7.87
2019-02-16T03:10:01.937Z,7.30
2019-02-16T03:12:31.187Z,6.70
2019-02-16T03:15:02.281Z,6.63
2019-02-16T03:17:31.529Z,7.27
2019-02-16T03:20:00.782Z,7.30
2019-02-16T03:23:26.390Z,8.33
2019-02-16T03:26:22.796Z,8.43
2019-02-16T03:29:11.753Z,6.80
2019-02-16T03:32:16.581Z,7.07
2019-02-16T03:34:55.295Z,6.83
2019-02-16T03:38:26.757Z,8.20
2019-02-16T03:40:56.062Z,7.43
2019-02-16T03:43:25.316Z,8.10
2019-02-16T03:45:54.571Z,7.27
2019-02-16T03:48:23.846Z,7.17
2019-02-16T03:50:53.106Z,7.90
2019-02-16T03:53:24.287Z,9.13
2019-02-16T03:55:53.559Z,9.03
2019-02-16T03:58:22.810Z,9.97
2019-02-16T04:00:52.089Z,10.53
2019-02-16T04:03:21.343Z,10.33
2019-02-16T04:05:50.643Z,9.37
2019-02-16T04:08:19.933Z,9.83
2019-02-16T04:10:49.197Z,9.53
2019-02-16T04:13:18.455Z,10.47
2019-02-16T04:15:47.749Z,9.63
2019-02-16T04:18:17.074Z,10.07
2019-02-16T04:20:46.327Z,10.40
2019-02-16T04:23:15.581Z,9.33
2019-02-16T04:25:44.852Z,9.33
2019-02-16T04:28:14.105Z,10.13
2019-02-16T04:30:43.375Z,8.87
2019-02-16T04:33:12.626Z,9.97
2019-02-16T04:35:41.909Z,9.90
2019-02-16T04:38:11.167Z,10.33
2019-02-16T04:40:40.448Z,10.20
2019-02-16T04:43:09.813Z,9.97
2019-02-16T04:45:39.066Z,10.30
2019-02-16T04:48:08.337Z,9.97
2019-02-16T04:50:37.605Z,10.40
2019-02-16T04:53:06.897Z,10.40
2019-02-16T04:55:36.129Z,8.50
2019-02-16T04:58:05.381Z,9.07
2019-02-16T05:00:34.676Z,8.47
2019-02-16T05:03:03.928Z,7.90
2019-02-16T05:05:33.178Z,6.70
2019-02-16T05:08:02.469Z,7.77
2019-02-16T05:10:31.767Z,6.97
2019-02-16T05:13:01.017Z,6.70
2019-02-16T05:15:30.311Z,6.77
2019-02-16T05:17:59.586Z,6.40
2019-02-16T05:20:28.847Z,6.27
2019-02-16T05:22:58.166Z,6.37
2019-02-16T05:25:27.451Z,5.83
2019-02-16T05:27:56.704Z,6.57
2019-02-16T05:30:26.041Z,6.77
2019-02-16T05:32:55.289Z,7.17
2019-02-16T05:35:24.542Z,6.37
2019-02-16T05:37:53.828Z,6.93
2019-02-16T05:40:23.107Z,6.60
2019-02-16T05:42:52.381Z,5.93
2019-02-16T05:45:21.652Z,6.57
2019-02-16T05:47:50.907Z,6.03
2019-02-16T05:50:20.181Z,6.23
2019-02-16T05:52:54.378Z,5.30
2019-02-16T05:55:20.419Z,5.70
2019-02-16T05:57:49.691Z,5.03
2019-02-16T06:00:21.068Z,5.07
2019-02-16T06:02:50.356Z,4.97
2019-02-16T06:05:19.607Z,4.73
2019-02-16T06:07:48.883Z,4.90
2019-02-16T06:10:18.133Z,5.10
2019-02-16T06:12:47.478Z,4.83
2019-02-16T06:15:16.753Z,4.97
2019-02-16T06:17:45.999Z,4.50
2019-02-16T06:20:15.271Z,4.87
2019-02-16T06:22:44.520Z,5.80
2019-02-16T06:25:14.340Z,5.40
2019-02-16T06:27:43.609Z,5.33
2019-02-16T06:30:12.875Z,4.50
2019-02-16T06:32:42.131Z,5.40
2019-02-16T06:35:27.336Z,5.10
2019-02-16T06:37:56.588Z,5.30
2019-02-16T06:40:25.843Z,5.00
2019-02-16T06:42:55.159Z,4.40
2019-02-16T06:45:24.439Z,4.70
2019-02-16T06:47:53.942Z,5.00
2019-02-16T06:50:24.320Z,4.47
2019-02-16T06:52:53.565Z,5.30
2019-02-16T06:55:24.495Z,4.87
2019-02-16T06:57:55.263Z,4.63
2019-02-16T07:00:27.469Z,4.80
2019-02-16T07:02:56.690Z,4.90
2019-02-16T07:05:25.939Z,4.50
2019-02-16T07:07:55.212Z,4.70
2019-02-16T07:10:24.469Z,4.27
2019-02-16T07:12:53.755Z,4.73
2019-02-16T07:15:23.100Z,5.33
2019-02-16T07:18:20.721Z,5.13
2019-02-16T07:20:50.013Z,5.53
2019-02-16T07:23:22.503Z,4.87
2019-02-16T07:25:50.280Z,4.80
2019-02-16T07:28:19.550Z,5.07
2019-02-16T07:30:48.836Z,5.13
2019-02-16T07:33:18.087Z,5.33
2019-02-16T07:35:47.425Z,4.93
2019-02-16T07:38:16.711Z,4.53
2019-02-16T07:40:47.709Z,4.90
2019-02-16T07:43:35.927Z,5.63
2019-02-16T07:46:11.334Z,5.37
2019-02-16T07:49:02.752Z,5.77
2019-02-16T07:51:53.095Z,5.33
2019-02-16T07:54:37.945Z,5.70
2019-02-16T07:57:12.629Z,5.77
2019-02-16T07:59:54.151Z,5.27
2019-02-16T08:02:49.999Z,5.60
2019-02-16T08:05:32.408Z,6.03
2019-02-16T08:08:15.077Z,6.10
2019-02-16T08:10:58.236Z,6.40
2019-02-16T08:13:53.528Z,5.20
2019-02-16T08:16:30.262Z,6.07
2019-02-16T08:19:39.214Z,6.93
2019-02-16T08:22:18.855Z,9.67
2019-02-16T08:25:03.703Z,11.57
2019-02-16T08:27:46.033Z,11.17
2019-02-16T08:30:42.383Z,11.50
2019-02-16T08:33:22.796Z,9.93
2019-02-16T08:36:02.015Z,10.67
2019-02-16T08:38:40.544Z,11.83
2019-02-16T08:41:27.696Z,11.37
2019-02-16T08:44:06.997Z,11.20
2019-02-16T08:47:14.187Z,11.33
2019-02-16T08:50:10.492Z,12.70
2019-02-16T08:53:02.899Z,12.77
2019-02-16T08:55:49.274Z,12.73
2019-02-16T08:58:36.432Z,13.60
2019-02-16T09:01:27.475Z,15.37
2019-02-16T09:04:14.030Z,13.20
2019-02-16T09:07:08.630Z,14.03
2019-02-16T09:09:51.784Z,13.80
2019-02-16T09:12:36.190Z,13.70
2019-02-16T09:15:25.312Z,13.87
2019-02-16T09:18:22.552Z,14.63
2019-02-16T09:21:19.954Z,14.20
2019-02-16T09:24:23.671Z,14.47
2019-02-16T09:27:20.928Z,12.77
2019-02-16T09:30:18.511Z,14.93
2019-02-16T09:33:09.869Z,13.93
2019-02-16T09:35:54.355Z,14.00
2019-02-16T09:38:42.471Z,13.67
2019-02-16T09:41:46.095Z,14.03
2019-02-16T09:44:36.936Z,13.17
2019-02-16T09:47:25.931Z,12.23
2019-02-16T09:50:05.532Z,14.37
2019-02-16T09:52:54.012Z,13.47
2019-02-16T09:55:40.391Z,13.50
2019-02-16T09:58:33.962Z,12.83
2019-02-16T10:01:25.251Z,12.73
2019-02-16T10:04:12.432Z,11.93
2019-02-16T10:07:06.910Z,12.40
2019-02-16T10:09:54.803Z,12.27
2019-02-16T10:12:34.104Z,13.07
2019-02-16T10:15:21.084Z,12.27
2019-02-16T10:18:24.626Z,12.03
2019-02-16T10:21:12.856Z,12.83
2019-02-16T10:23:59.812Z,13.40
2019-02-16T10:26:48.361Z,12.90
2019-02-16T10:29:39.618Z,12.30
2019-02-16T10:32:43.187Z,12.70
2019-02-16T10:35:41.415Z,12.70
2019-02-16T10:38:45.001Z,12.53
2019-02-16T10:41:33.967Z,12.87
2019-02-16T10:44:20.723Z,11.93
2019-02-16T10:47:11.772Z,11.67
2019-02-16T10:49:55.156Z,12.53
2019-02-16T10:52:41.154Z,11.73
2019-02-16T10:55:41.503Z,11.63
2019-02-16T10:58:28.010Z,10.47
2019-02-16T11:01:05.309Z,10.73
2019-02-16T11:03:54.031Z,9.93
2019-02-16T11:06:42.335Z,10.53
2019-02-16T11:09:29.228Z,10.10
2019-02-16T11:12:16.692Z,9.80
2019-02-16T11:14:59.018Z,8.67
2019-02-16T11:17:59.411Z,9.40
2019-02-16T11:20:53.745Z,9.07
2019-02-16T11:23:47.994Z,9.90
2019-02-16T11:26:46.840Z,9.23
2019-02-16T11:29:28.234Z,9.00
2019-02-16T11:32:16.992Z,8.63
2019-02-16T11:35:04.437Z,8.80
2019-02-16T11:37:53.719Z,8.40
2019-02-16T11:40:49.864Z,8.67
2019-02-16T11:43:34.676Z,8.57
2019-02-16T11:46:24.882Z,8.33
2019-02-16T11:49:09.659Z,8.50
2019-02-16T11:52:04.397Z,8.20
2019-02-16T11:54:45.972Z,8.47
2019-02-16T11:57:34.311Z,8.27
2019-02-16T12:00:22.817Z,8.67
2019-02-16T12:03:03.136Z,8.00
2019-02-16T12:05:49.959Z,8.40
2019-02-16T12:08:47.140Z,8.57
2019-02-16T12:11:38.179Z,8.70
2019-02-16T12:14:17.877Z,8.73
2019-02-16T12:17:12.219Z,7.07
2019-02-16T12:19:57.120Z,7.00
2019-02-16T12:22:45.870Z,7.27
2019-02-16T12:25:32.056Z,7.40
2019-02-16T12:28:10.740Z,7.57
2019-02-16T12:30:55.226Z,7.50
2019-02-16T12:33:42.292Z,7.83
2019-02-16T12:36:29.444Z,7.83
2019-02-16T12:39:29.879Z,10.90
2019-02-16T12:42:08.569Z,11.43
2019-02-16T12:44:47.985Z,9.87
2019-02-16T12:47:25.320Z,9.63
2019-02-16T12:50:19.470Z,9.13
2019-02-16T12:53:13.841Z,9.60
2019-02-16T12:56:04.793Z,9.47
2019-02-16T12:58:48.703Z,10.43
2019-02-16T13:01:35.888Z,9.67
2019-02-16T13:04:21.464Z,10.07
2019-02-16T13:07:12.757Z,10.67
2019-02-16T13:09:57.750Z,11.00
2019-02-16T13:12:51.736Z,9.77
2019-02-16T13:15:32.401Z,10.50
2019-02-16T13:18:19.463Z,10.90
2019-02-16T13:20:58.101Z,10.97
2019-02-16T13:23:34.048Z,10.80
2019-02-16T13:26:25.310Z,11.20
2019-02-16T13:29:16.420Z,11.03
2019-02-16T13:31:54.792Z,10.60
2019-02-16T13:34:31.121Z,10.97
2019-02-16T13:37:18.139Z,11.33
2019-02-16T13:40:21.439Z,12.07
2019-02-16T13:43:15.488Z,11.80
2019-02-16T13:46:16.869Z,12.60
2019-02-16T13:49:03.365Z,13.10
2019-02-16T13:51:50.872Z,12.60
2019-02-16T13:54:39.177Z,12.47
2019-02-16T13:57:30.792Z,12.63
2019-02-16T14:00:18.830Z,12.73
2019-02-16T14:03:19.168Z,13.20
2019-02-16T14:06:22.760Z,12.67
2019-02-16T14:09:07.682Z,13.10
2019-02-16T14:11:55.926Z,13.27
2019-02-16T14:14:50.263Z,12.83
2019-02-16T14:17:31.909Z,13.77
2019-02-16T14:20:01.173Z,14.53
2019-02-16T14:22:30.485Z,13.33
2019-02-16T14:25:01.478Z,14.20
2019-02-16T14:27:30.757Z,13.37
2019-02-16T14:30:00.019Z,13.03
2019-02-16T14:32:29.334Z,13.27
2019-02-16T14:34:58.609Z,14.20
2019-02-16T14:37:52.978Z,13.97
2019-02-16T14:40:23.445Z,14.17
2019-02-16T14:42:52.750Z,14.00
2019-02-16T14:45:22.055Z,14.43
2019-02-16T14:47:51.264Z,13.57
2019-02-16T14:50:21.172Z,15.07
2019-02-16T14:52:51.758Z,13.97
2019-02-16T14:55:23.798Z,14.40
2019-02-16T14:57:54.361Z,13.63
2019-02-16T15:00:24.548Z,14.27
2019-02-16T15:02:55.403Z,14.47
2019-02-16T15:05:26.190Z,13.37
2019-02-16T15:07:56.636Z,14.87
2019-02-16T15:10:27.314Z,15.07
2019-02-16T15:12:57.543Z,15.03
2019-02-16T15:15:27.339Z,14.80
2019-02-16T15:17:58.030Z,15.60
2019-02-16T15:20:29.486Z,15.00
2019-02-16T15:23:01.534Z,15.30
2019-02-16T15:25:32.358Z,14.93
2019-02-16T15:28:03.993Z,13.60
2019-02-16T15:30:37.532Z,15.63
2019-02-16T15:33:10.374Z,14.73
2019-02-16T15:36:01.561Z,15.03
2019-02-16T15:41:22.618Z,14.87
2019-02-16T15:43:53.225Z,14.23
2019-02-16T15:46:22.540Z,14.27
2019-02-16T15:48:51.829Z,15.03
2019-02-16T15:51:21.085Z,14.47
2019-02-16T15:53:52.211Z,14.83
2019-02-16T15:56:21.810Z,14.63
2019-02-16T15:59:01.921Z,15.20
2019-02-16T16:01:55.543Z,15.70
2019-02-16T16:04:28.996Z,14.17
2019-02-16T16:07:00.020Z,14.13
2019-02-16T16:09:51.641Z,15.23
2019-02-16T16:12:27.335Z,15.63
2019-02-16T16:15:15.632Z,14.53
2019-02-16T16:17:58.720Z,16.53
2019-02-16T16:20:47.845Z,15.87
2019-02-16T16:23:48.412Z,15.60
2019-02-16T16:26:43.062Z,14.80
2019-02-16T16:29:31.864Z,14.57
2019-02-16T16:32:14.292Z,14.80
2019-02-16T16:35:04.118Z,13.97
2019-02-16T16:37:46.991Z,15.00
2019-02-16T16:40:23.731Z,15.37
2019-02-16T16:43:04.243Z,14.70
2019-02-16T16:45:42.596Z,14.80
2019-02-16T16:48:21.887Z,15.80
2019-02-16T16:51:00.443Z,15.03
2019-02-16T16:53:44.801Z,15.83
2019-02-16T16:56:33.638Z,15.93
2019-02-16T16:59:19.982Z,15.50
2019-02-16T17:02:07.206Z,16.00
2019-02-16T17:04:55.457Z,16.70
2019-02-16T17:07:59.116Z,16.33
2019-02-16T17:10:40.900Z,21.70
2019-02-16T17:13:32.007Z,16.73
2019-02-16T17:16:12.098Z,21.13
2019-02-16T17:19:03.462Z,18.83
2019-02-16T17:21:43.512Z,21.60
2019-02-16T17:24:20.417Z,17.97
2019-02-16T17:27:02.366Z,17.97
2019-02-16T17:29:37.585Z,18.77
2019-02-16T17:32:41.217Z,18.67
2019-02-16T17:35:30.334Z,19.13
2019-02-16T17:38:27.473Z,17.60
2019-02-16T17:41:33.818Z,17.80
2019-02-16T17:44:10.933Z,17.20
2019-02-16T17:47:13.973Z,18.53
2019-02-16T17:50:03.053Z,17.17
2019-02-16T17:52:50.220Z,18.93
2019-02-16T17:55:46.341Z,17.83
2019-02-16T17:58:33.162Z,18.93
2019-02-16T18:01:10.188Z,17.17
2019-02-16T18:03:58.441Z,18.93
2019-02-16T18:06:47.384Z,18.90
2019-02-16T18:09:42.457Z,18.30
2019-02-16T18:12:21.801Z,19.53
2019-02-16T18:15:00.605Z,19.43
2019-02-16T18:18:07.454Z,19.40
2019-02-16T18:21:08.787Z,19.63
2019-02-16T18:23:46.133Z,20.00
2019-02-16T18:26:40.300Z,19.93
2019-02-16T18:29:37.654Z,19.87
2019-02-16T18:32:31.265Z,20.40
2019-02-16T18:35:24.183Z,20.10
2019-02-16T18:38:15.114Z,20.43
2019-02-16T18:41:01.441Z,20.50
2019-02-16T18:43:49.629Z,22.03
2019-02-16T18:46:44.219Z,20.77
2019-02-16T18:49:48.027Z,21.60
2019-02-16T18:52:27.355Z,20.40
2019-02-16T18:55:15.152Z,20.77
2019-02-16T18:58:03.408Z,21.17
2019-02-16T19:00:54.444Z,21.23
2019-02-16T19:03:41.057Z,20.93
2019-02-16T19:06:37.339Z,19.77
2019-02-16T19:09:34.828Z,21.30
2019-02-16T19:12:42.271Z,19.13
2019-02-16T19:15:21.285Z,19.97
2019-02-16T19:17:57.630Z,19.70
2019-02-16T19:20:46.386Z,19.50
2019-02-16T19:23:49.748Z,20.57
2019-02-16T19:26:50.143Z,19.13
2019-02-16T19:29:56.744Z,21.43
2019-02-16T19:33:03.223Z,20.87
2019-02-16T19:35:44.290Z,20.70
2019-02-16T19:38:29.975Z,20.73
2019-02-16T19:41:16.358Z,22.73
2019-02-16T19:44:20.182Z,48.87
2019-02-16T19:47:14.229Z,49.47
2019-02-16T19:50:02.469Z,21.13
2019-02-16T19:52:50.726Z,20.40
2019-02-16T19:55:30.610Z,20.73
2019-02-16T19:58:24.998Z,20.90
2019-02-16T20:01:01.969Z,22.27
2019-02-16T20:03:52.617Z,21.77
2019-02-16T20:06:53.091Z,20.43
2019-02-16T20:09:33.964Z,22.27
2019-02-16T20:12:22.101Z,20.90
2019-02-16T20:15:16.866Z,20.10
2019-02-16T20:18:11.408Z,20.00
2019-02-16T20:20:59.988Z,20.67
2019-02-16T20:23:57.572Z,20.03
2019-02-16T20:27:04.140Z,20.23
2019-02-16T20:29:55.310Z,20.80
2019-02-16T20:32:39.208Z,22.77
2019-02-16T20:35:33.234Z,19.63
2019-02-16T20:38:12.564Z,20.60
2019-02-16T20:40:52.804Z,19.23
2019-02-16T20:43:27.857Z,19.40
2019-02-16T20:46:16.803Z,20.70
2019-02-16T20:48:58.804Z,19.80
2019-02-16T20:51:47.118Z,20.77
2019-02-16T20:54:38.200Z,19.90
2019-02-16T20:57:13.974Z,18.87
2019-02-16T21:00:02.334Z,19.70
2019-02-16T21:02:50.620Z,19.80
2019-02-16T21:05:38.561Z,20.27
2019-02-16T21:08:26.784Z,19.67
2019-02-16T21:11:14.148Z,19.67
2019-02-16T21:14:02.351Z,19.13
2019-02-16T21:16:45.512Z,18.33
2019-02-16T21:19:23.403Z,19.17
2019-02-16T21:22:10.682Z,19.50
2019-02-16T21:24:51.693Z,18.77
2019-02-16T21:27:25.947Z,18.07
2019-02-16T21:30:17.214Z,20.83
2019-02-16T21:33:05.520Z,20.20
2019-02-16T21:35:59.792Z,18.70
2019-02-16T21:38:48.216Z,19.40
2019-02-16T21:41:24.415Z,18.57
2019-02-16T21:44:09.995Z,20.37
2019-02-16T21:46:52.805Z,20.27
2019-02-16T21:49:50.592Z,18.77
2019-02-16T21:52:51.180Z,19.97
2019-02-16T21:55:48.874Z,19.53
2019-02-16T21:58:35.930Z,19.70
2019-02-16T22:01:25.341Z,18.57
2019-02-16T22:04:28.788Z,18.17
2019-02-16T22:07:22.160Z,17.93
2019-02-16T22:10:01.547Z,17.70
2019-02-16T22:13:05.220Z,17.60
2019-02-16T22:15:34.762Z,16.93
2019-02-16T22:18:04.524Z,17.80
2019-02-16T22:20:33.885Z,17.73
2019-02-16T22:23:03.187Z,17.13
2019-02-16T22:25:32.656Z,16.70
2019-02-16T22:28:01.933Z,16.93
2019-02-16T22:30:31.487Z,17.17
2019-02-16T22:33:01.208Z,16.37
2019-02-16T22:35:32.796Z,16.00
2019-02-16T22:38:02.078Z,16.57
2019-02-16T22:40:31.605Z,16.63
2019-02-16T22:43:00.996Z,17.63
2019-02-16T22:45:30.259Z,18.27
2019-02-16T22:47:59.570Z,17.13
2019-02-16T22:50:29.071Z,17.93
2019-02-16T22:52:58.336Z,17.53
2019-02-16T22:55:27.679Z,21.80
2019-02-16T22:57:59.458Z,28.77
2019-02-16T23:00:47.001Z,17.37
2019-02-16T23:03:17.075Z,18.43
2019-02-16T23:05:46.423Z,18.03
2019-02-16T23:08:16.171Z,18.33
2019-02-16T23:10:46.677Z,18.37
2019-02-16T23:13:18.018Z,17.60
2019-02-16T23:15:47.672Z,17.03
2019-02-16T23:18:17.301Z,17.83
2019-02-16T23:20:47.765Z,18.20
2019-02-16T23:23:17.538Z,18.43
2019-02-16T23:25:46.823Z,18.37
2019-02-16T23:28:16.141Z,18.60
2019-02-16T23:30:45.385Z,16.80
2019-02-16T23:33:14.660Z,18.73
2019-02-16T23:35:43.951Z,18.10
2019-02-16T23:38:13.290Z,17.70
2019-02-16T23:40:42.618Z,19.00
2019-02-16T23:43:11.985Z,19.53
2019-02-16T23:45:41.249Z,18.17
2019-02-16T23:48:10.541Z,17.93
2019-02-16T23:50:39.799Z,17.87
2019-02-16T23:53:09.192Z,18.60
2019-02-16T23:55:38.456Z,18.50
2019-02-16T23:58:07.721Z,17.30
